Time;durP1;ratioP1;P1;durP2;ratioP2;P2;SDS_P1;SDS_P2;PMS_P1;PMS_P2;Temp;Humidity;BMP_temperature;BMP_pressure;BME280_temperature;BME280_humidity;BME280_pressure;Samples;Min_cycle;Max_cycle;Signal;HPM_P1;HPM_P2
2021/04/22 00:00:54;;;;;;;5.97;1.20;;;;;;;4.73;58.57;100877.91;4989170;28;20235;-75
2021/04/22 00:03:20;;;;;;;3.93;1.20;;;;;;;4.61;59.22;100875.31;4984549;28;20230;-75
2021/04/22 00:05:46;;;;;;;4.73;1.00;;;;;;;4.53;60.46;100861.50;4997253;28;20225;-75
2021/04/22 00:08:12;;;;;;;2.03;0.80;;;;;;;4.40;60.88;100870.94;4996451;28;20200;-75
2021/04/22 00:10:40;;;;;;;6.23;1.10;;;;;;;4.29;62.01;100870.03;4992987;28;20261;-75
2021/04/22 00:13:07;;;;;;;4.17;1.20;;;;;;;4.23;63.29;100865.72;4995003;28;20273;-75
2021/04/22 00:15:33;;;;;;;5.53;1.07;;;;;;;4.23;62.89;100870.03;4990945;28;20221;-75
2021/04/22 00:18:00;;;;;;;3.90;0.93;;;;;;;4.20;62.86;100863.13;4982503;28;20217;-75
2021/04/22 00:20:27;;;;;;;5.20;1.07;;;;;;;4.20;63.17;100873.44;4976401;28;20548;-75
2021/04/22 00:22:54;;;;;;;1.20;0.90;;;;;;;4.15;63.07;100881.19;4992762;28;20916;-75
2021/04/22 00:25:20;;;;;;;4.30;1.20;;;;;;;4.15;63.13;100883.78;4992956;28;20276;-75
2021/04/22 00:27:46;;;;;;;6.97;1.50;;;;;;;4.10;64.12;100879.44;4988486;28;20200;-75
2021/04/22 00:30:15;;;;;;;3.50;1.20;;;;;;;4.01;64.81;100874.22;4989002;28;20197;-75
2021/04/22 00:32:42;;;;;;;5.07;0.83;;;;;;;3.91;65.41;100878.50;4988652;28;20209;-75
2021/04/22 00:35:11;;;;;;;2.53;1.00;;;;;;;3.82;66.02;100881.88;4989588;28;20225;-75
2021/04/22 00:37:38;;;;;;;1.23;0.80;;;;;;;3.73;65.67;100884.38;4988728;28;20233;-75
2021/04/22 00:40:07;;;;;;;1.37;1.10;;;;;;;3.72;65.86;100880.94;4989314;28;20203;-75
2021/04/22 00:42:33;;;;;;;3.00;1.23;;;;;;;3.69;65.83;100890.38;4988364;28;20236;-75
2021/04/22 00:44:59;;;;;;;3.13;1.17;;;;;;;3.70;65.47;100892.97;4990844;28;20221;-75
2021/04/22 00:47:25;;;;;;;3.10;1.20;;;;;;;3.70;65.31;100903.28;4998235;28;20205;-75
2021/04/22 00:49:51;;;;;;;4.33;1.40;;;;;;;3.63;66.99;100898.09;4988562;28;20201;-75
2021/04/22 00:52:18;;;;;;;5.13;1.63;;;;;;;3.62;66.28;100889.47;4987318;28;20227;-75
2021/04/22 00:54:45;;;;;;;4.10;1.53;;;;;;;3.67;65.78;100905.00;4987805;28;20225;-75
2021/04/22 00:57:11;;;;;;;4.40;1.47;;;;;;;3.66;65.76;100905.81;4986363;28;20229;-75
2021/04/22 00:59:37;;;;;;;4.13;1.20;;;;;;;3.62;66.83;100906.66;4992039;28;20204;-75
2021/04/22 01:02:04;;;;;;;3.27;1.37;;;;;;;3.58;66.44;100916.97;4987364;28;20303;-74
2021/04/22 01:04:30;;;;;;;3.83;1.50;;;;;;;3.54;66.35;100917.78;4992129;28;20232;-75
2021/04/22 01:06:56;;;;;;;6.87;1.50;;;;;;;3.54;65.12;100930.69;4989771;28;20189;-75
2021/04/22 01:09:23;;;;;;;5.23;1.40;;;;;;;3.55;63.44;100934.13;4988045;28;20205;-75
2021/04/22 01:11:49;;;;;;;7.53;2.30;;;;;;;3.53;61.26;100949.56;4992524;28;20200;-75
2021/04/22 01:14:15;;;;;;;3.97;1.40;;;;;;;3.53;61.31;100943.56;4991069;28;20329;-75
2021/04/22 01:16:41;;;;;;;8.53;2.57;;;;;;;3.46;60.36;100954.69;4986759;28;20220;-75
2021/04/22 01:19:07;;;;;;;5.27;1.70;;;;;;;3.46;59.70;100954.69;4987886;28;20221;-75
2021/04/22 01:21:34;;;;;;;6.43;1.67;;;;;;;3.36;59.71;100953.72;4988222;28;20922;-75
2021/04/22 01:24:01;;;;;;;7.73;2.00;;;;;;;3.33;60.37;100964.88;4988079;28;20275;-75
2021/04/22 01:26:27;;;;;;;7.97;2.17;;;;;;;3.32;59.73;100964.88;4988548;28;20216;-75
2021/04/22 01:28:53;;;;;;;6.63;1.97;;;;;;;3.25;60.54;100963.94;4994083;28;20198;-75
2021/04/22 01:31:19;;;;;;;6.37;2.47;;;;;;;3.20;60.02;100961.34;4969940;28;20208;-75
2021/04/22 01:33:45;;;;;;;6.57;2.10;;;;;;;3.14;59.69;100960.41;4987685;28;20217;-75
2021/04/22 01:36:11;;;;;;;4.77;1.63;;;;;;;3.11;59.95;100963.81;4987759;28;20263;-75
2021/04/22 01:38:39;;;;;;;8.13;1.93;;;;;;;3.04;60.07;100959.44;4992294;28;20257;-75
2021/04/22 01:41:06;;;;;;;7.33;1.90;;;;;;;3.00;60.99;100955.97;4988519;28;20689;-75
2021/04/22 01:43:32;;;;;;;5.40;1.77;;;;;;;2.91;62.09;100958.47;4992816;28;20829;-75
2021/04/22 01:46:00;;;;;;;5.77;1.90;;;;;;;2.88;61.52;100966.16;4987986;28;20201;-75
2021/04/22 01:48:29;;;;;;;9.53;1.97;;;;;;;2.84;62.59;100960.09;4987306;28;20212;-75
2021/04/22 01:50:56;;;;;;;4.53;1.93;;;;;;;2.79;62.69;100969.47;4988059;28;20669;-75
2021/04/22 01:53:23;;;;;;;5.03;1.63;;;;;;;2.70;63.33;100966.81;4991256;28;20225;-75
2021/04/22 01:55:51;;;;;;;6.87;1.77;;;;;;;2.71;63.49;100965.09;4986352;28;20221;-75
2021/04/22 01:58:22;;;;;;;5.13;1.57;;;;;;;2.67;64.17;100965.91;4988603;28;20623;-75
2021/04/22 02:00:50;;;;;;;6.13;1.80;;;;;;;2.61;64.82;100959.00;4990059;28;20207;-75
2021/04/22 02:03:16;;;;;;;9.20;1.83;;;;;;;2.58;65.47;100966.66;4987393;28;20221;-75
2021/04/22 02:05:43;;;;;;;6.50;1.77;;;;;;;2.56;65.60;100971.78;4986316;28;20197;-75
2021/04/22 02:08:11;;;;;;;6.13;1.90;;;;;;;2.50;65.91;100963.13;4992463;28;20217;-75
2021/04/22 02:10:39;;;;;;;3.67;1.57;;;;;;;2.47;65.79;100971.69;4987455;28;20197;-75
2021/04/22 02:13:09;;;;;;;5.80;1.93;;;;;;;2.38;66.91;100967.28;4988398;28;20259;-75
2021/04/22 02:15:36;;;;;;;6.17;2.07;;;;;;;2.36;66.65;100960.41;4991030;28;20381;-75
2021/04/22 02:18:02;;;;;;;4.63;1.50;;;;;;;2.28;67.06;100966.28;4991219;28;20205;-75
2021/04/22 02:20:28;;;;;;;7.83;1.83;;;;;;;2.23;67.93;100960.25;4994039;28;20217;-74
2021/04/22 02:22:54;;;;;;;6.90;1.90;;;;;;;2.14;68.30;100956.66;4995892;28;20200;-75
2021/04/22 02:25:23;;;;;;;5.67;1.90;;;;;;;2.11;68.09;100961.75;4990835;28;20203;-75
2021/04/22 02:27:50;;;;;;;5.67;2.27;;;;;;;2.04;68.52;100959.13;4990784;28;20624;-75
2021/04/22 02:30:20;;;;;;;5.50;1.70;;;;;;;1.97;69.60;100952.16;4985739;28;20284;-75
2021/04/22 02:32:47;;;;;;;6.30;1.87;;;;;;;1.87;69.46;100969.16;4990792;28;20209;-75
2021/04/22 02:35:16;;;;;;;7.73;2.10;;;;;;;1.81;69.36;100966.50;4991010;28;20217;-75
2021/04/22 02:37:42;;;;;;;5.00;1.90;;;;;;;1.80;70.19;100967.34;4991468;28;20193;-75
2021/04/22 02:40:10;;;;;;;7.63;2.00;;;;;;;1.76;69.87;100963.00;4991098;28;20201;-75
2021/04/22 02:42:37;;;;;;;6.67;1.70;;;;;;;1.78;70.04;100969.03;4990791;28;20676;-75
2021/04/22 02:45:07;;;;;;;9.53;1.93;;;;;;;1.74;70.40;100963.78;4991763;28;20236;-75
2021/04/22 02:47:34;;;;;;;6.63;1.70;;;;;;;1.72;70.82;100966.34;4991110;28;20212;-75
2021/04/22 02:50:00;;;;;;;6.10;2.10;;;;;;;1.76;70.75;100962.09;4989368;28;20772;-75
2021/04/22 02:52:26;;;;;;;8.30;1.87;;;;;;;1.74;71.25;100964.66;4990729;28;20669;-75
2021/04/22 02:54:52;;;;;;;4.57;1.80;;;;;;;1.74;71.60;100964.66;4990395;28;20219;-75
2021/04/22 02:57:18;;;;;;;7.00;1.70;;;;;;;1.72;71.30;100960.34;4998227;28;20221;-75
2021/04/22 02:59:44;;;;;;;6.70;2.20;;;;;;;1.70;71.96;100962.88;4988887;28;20816;-75
2021/04/22 03:02:10;;;;;;;5.77;2.10;;;;;;;1.72;72.34;100952.63;4990343;28;20298;-75
2021/04/22 03:04:37;;;;;;;6.07;1.80;;;;;;;1.67;71.82;100956.00;4990007;28;20225;-75
2021/04/22 03:07:03;;;;;;;3.93;1.70;;;;;;;1.66;73.03;100954.25;4993925;28;20205;-75
2021/04/22 03:09:29;;;;;;;4.13;1.60;;;;;;;1.63;73.35;100961.06;4987924;28;20788;-75
2021/04/22 03:11:55;;;;;;;6.23;1.90;;;;;;;1.66;72.73;100959.41;4991858;28;20292;-75
2021/04/22 03:14:21;;;;;;;4.60;1.60;;;;;;;1.65;73.53;100959.38;4988773;28;20231;-75
2021/04/22 03:16:47;;;;;;;6.30;1.60;;;;;;;1.71;73.80;100959.47;4990169;28;20211;-75
2021/04/22 03:19:13;;;;;;;4.87;1.90;;;;;;;1.71;73.42;100956.91;4989920;28;20208;-75
2021/04/22 03:21:40;;;;;;;6.33;2.00;;;;;;;1.72;73.75;100966.34;4997099;28;20663;-75
2021/04/22 03:24:08;;;;;;;6.63;2.10;;;;;;;1.69;73.54;100964.59;4992154;28;20225;-75
2021/04/22 03:26:34;;;;;;;7.10;2.33;;;;;;;1.69;73.51;100962.03;4991411;28;20193;-75
2021/04/22 03:29:00;;;;;;;4.80;1.80;;;;;;;1.64;74.46;100958.53;4990886;28;20205;-75
2021/04/22 03:31:27;;;;;;;6.97;2.17;;;;;;;1.58;73.80;100965.25;4988255;28;20215;-75
2021/04/22 03:33:53;;;;;;;4.73;1.87;;;;;;;1.53;74.09;100965.22;4989634;28;20224;-75
2021/04/22 03:36:19;;;;;;;7.23;1.67;;;;;;;1.54;73.90;100963.50;4990225;28;20225;-75
2021/04/22 03:38:45;;;;;;;7.23;1.83;;;;;;;1.56;73.85;100972.09;4996987;28;20203;-75
2021/04/22 03:41:11;;;;;;;7.30;2.17;;;;;;;1.61;73.91;100976.44;5000922;28;20255;-75
2021/04/22 03:43:37;;;;;;;4.73;1.73;;;;;;;1.68;73.47;100982.56;4991872;28;20237;-75
2021/04/22 03:46:03;;;;;;;4.83;1.70;;;;;;;1.69;74.08;100974.88;4989764;28;20201;-75
2021/04/22 03:48:29;;;;;;;6.57;1.90;;;;;;;1.69;74.06;100974.03;4989240;28;20681;-75
2021/04/22 03:50:55;;;;;;;5.47;2.13;;;;;;;1.73;74.75;100980.06;4989479;28;20661;-75
2021/04/22 03:53:21;;;;;;;7.67;2.00;;;;;;;1.78;74.10;100983.59;4989427;28;20311;-74
2021/04/22 03:55:48;;;;;;;7.23;1.80;;;;;;;1.83;73.79;100989.63;4999886;28;20642;-74
2021/04/22 03:58:14;;;;;;;7.43;2.20;;;;;;;1.88;72.48;100980.28;4989715;28;20203;-74
2021/04/22 04:00:40;;;;;;;4.33;2.00;;;;;;;1.92;73.47;100986.34;4989936;28;20208;-74
2021/04/22 04:03:06;;;;;;;6.80;2.27;;;;;;;1.95;73.83;100987.25;4988947;28;20581;-74
2021/04/22 04:05:32;;;;;;;5.90;2.20;;;;;;;1.99;74.38;100985.63;4989650;28;20268;-74
2021/04/22 04:07:58;;;;;;;11.60;2.03;;;;;;;2.04;73.99;100987.41;4993599;28;20229;-74
2021/04/22 04:10:24;;;;;;;9.33;2.00;;;;;;;2.10;74.37;100996.91;4988998;28;20208;-74
2021/04/22 04:12:51;;;;;;;9.53;1.93;;;;;;;2.12;74.39;100989.22;4989432;28;20281;-74
2021/04/22 04:15:17;;;;;;;5.30;1.93;;;;;;;2.16;74.14;100994.41;4990049;28;20205;-74
2021/04/22 04:17:43;;;;;;;11.40;2.53;;;;;;;2.20;73.97;100998.78;4990915;28;20254;-74
2021/04/22 04:20:12;;;;;;;4.93;2.27;;;;;;;2.22;73.60;100998.81;4988227;28;20217;-74
2021/04/22 04:22:38;;;;;;;7.57;1.80;;;;;;;2.25;73.42;101003.97;4987529;28;20682;-74
2021/04/22 04:25:06;;;;;;;4.53;1.90;;;;;;;2.28;72.91;101006.59;4990345;28;20363;-74
2021/04/22 04:27:32;;;;;;;5.73;2.13;;;;;;;2.32;73.21;101000.66;4990119;28;20674;-74
2021/04/22 04:29:59;;;;;;;4.30;1.77;;;;;;;2.33;72.61;101006.69;4992991;28;20295;-74
2021/04/22 04:32:25;;;;;;;6.57;2.07;;;;;;;2.35;72.44;101008.41;4992159;28;20208;-74
2021/04/22 04:34:51;;;;;;;5.73;1.87;;;;;;;2.38;73.33;101011.03;4988500;28;20225;-74
2021/04/22 04:37:17;;;;;;;8.73;2.23;;;;;;;2.43;72.52;101011.97;5000777;28;20309;-73
2021/04/22 04:39:43;;;;;;;5.40;2.27;;;;;;;2.47;72.26;101012.88;4989640;28;20586;-75
2021/04/22 04:42:10;;;;;;;8.03;2.47;;;;;;;2.51;72.53;101012.06;4990168;28;20225;-74
2021/04/22 04:44:36;;;;;;;6.90;2.23;;;;;;;2.56;72.16;101020.69;4986804;28;20225;-74
2021/04/22 04:47:03;;;;;;;8.60;2.10;;;;;;;2.60;71.44;101019.91;4992994;28;20701;-74
2021/04/22 04:49:29;;;;;;;6.63;2.50;;;;;;;2.66;70.84;101016.56;4988391;28;20197;-74
2021/04/22 04:51:55;;;;;;;9.27;2.23;;;;;;;2.71;70.93;101021.75;4990764;28;20197;-74
2021/04/22 04:54:21;;;;;;;7.43;2.30;;;;;;;2.77;70.61;101030.41;4989308;28;20296;-74
2021/04/22 04:56:47;;;;;;;6.40;1.90;;;;;;;2.82;70.47;101025.34;4997794;28;20303;-74
2021/04/22 04:59:13;;;;;;;7.60;2.40;;;;;;;2.84;71.14;101032.22;4991755;28;20197;-74
2021/04/22 05:01:40;;;;;;;6.70;2.27;;;;;;;2.80;69.78;101027.88;4987847;28;20259;-74
2021/04/22 05:04:07;;;;;;;6.80;1.97;;;;;;;2.86;70.53;101033.97;4986926;28;20232;-74
2021/04/22 05:06:33;;;;;;;9.10;1.63;;;;;;;2.87;70.63;101039.13;4993520;28;20213;-74
2021/04/22 05:08:58;;;;;;;4.70;1.70;;;;;;;2.92;70.26;101040.06;4994128;28;20193;-78
2021/04/22 05:11:24;;;;;;;3.70;1.80;;;;;;;2.96;70.84;101043.53;4986493;28;20678;-74
2021/04/22 05:13:50;;;;;;;8.90;2.40;;;;;;;2.99;70.56;101043.53;4985796;28;20217;-74
2021/04/22 05:16:18;;;;;;;6.57;2.07;;;;;;;2.97;69.36;101053.84;4991230;28;20287;-74
2021/04/22 05:18:44;;;;;;;6.60;2.17;;;;;;;2.99;69.92;101053.84;4987494;28;20344;-74
2021/04/22 05:21:10;;;;;;;7.97;1.90;;;;;;;3.05;71.43;101053.06;4992195;28;20304;-74
2021/04/22 05:23:36;;;;;;;5.23;1.97;;;;;;;3.03;69.78;101053.06;4987270;28;20279;-73
2021/04/22 05:26:02;;;;;;;5.20;1.93;;;;;;;3.07;70.77;101059.97;4986291;28;20669;-74
2021/04/22 05:28:28;;;;;;;6.07;1.90;;;;;;;3.08;70.12;101050.50;4992083;28;20193;-74
2021/04/22 05:30:54;;;;;;;9.33;2.10;;;;;;;3.14;70.06;101053.16;4994119;28;20205;-74
2021/04/22 05:33:20;;;;;;;5.30;1.90;;;;;;;3.20;70.38;101061.84;4985702;28;20741;-74
2021/04/22 05:35:47;;;;;;;7.33;2.17;;;;;;;3.27;70.06;101061.91;4989257;28;20219;-74
2021/04/22 05:38:17;;;;;;;7.57;2.37;;;;;;;3.35;70.16;101068.00;4982306;28;20205;-74
2021/04/22 05:40:43;;;;;;;7.30;2.27;;;;;;;3.43;69.03;101058.66;4986552;28;20185;-74
2021/04/22 05:43:10;;;;;;;8.00;1.80;;;;;;;3.55;68.92;101063.03;4989702;28;20700;-74
2021/04/22 05:45:37;;;;;;;4.80;1.63;;;;;;;3.60;68.02;101071.69;4988190;28;20256;-74
2021/04/22 05:48:04;;;;;;;4.30;2.10;;;;;;;3.70;68.81;101073.50;4989872;28;20208;-74
2021/04/22 05:50:30;;;;;;;7.00;2.23;;;;;;;3.79;68.76;101076.16;4993003;28;20209;-74
2021/04/22 05:52:56;;;;;;;8.77;2.03;;;;;;;3.87;68.37;101072.78;5008212;28;20201;-74
2021/04/22 05:55:23;;;;;;;7.97;2.00;;;;;;;3.89;68.09;101069.38;4996914;28;20205;-74
2021/04/22 05:57:49;;;;;;;7.37;2.20;;;;;;;3.96;67.63;101070.31;4989940;28;20229;-74
2021/04/22 06:00:18;;;;;;;4.90;2.23;;;;;;;4.04;68.95;101062.63;4988130;28;20205;-74
2021/04/22 06:02:44;;;;;;;7.57;2.27;;;;;;;4.10;66.88;101073.00;4989349;28;20201;-74
2021/04/22 06:05:10;;;;;;;10.53;2.30;;;;;;;4.25;67.35;101074.81;5000940;28;20726;-74
2021/04/22 06:07:37;;;;;;;6.20;2.03;;;;;;;4.38;66.26;101078.34;4991044;28;20995;-74
2021/04/22 06:10:05;;;;;;;7.43;2.13;;;;;;;4.48;66.04;101080.13;4993801;28;20213;-74
2021/04/22 06:12:32;;;;;;;10.27;2.67;;;;;;;4.53;66.09;101065.53;5000331;28;20303;-74
2021/04/22 06:14:59;;;;;;;6.20;2.40;;;;;;;4.61;65.71;101081.06;4990905;28;20222;-74
2021/04/22 06:17:25;;;;;;;5.93;2.10;;;;;;;4.65;65.02;101081.09;4990557;28;20722;-74
2021/04/22 06:19:51;;;;;;;9.07;2.47;;;;;;;4.69;64.96;101072.50;4990740;28;20668;-74
2021/04/22 06:22:16;;;;;;;9.27;2.30;;;;;;;4.70;63.66;101074.22;4989867;28;20208;-74
2021/04/22 06:24:46;;;;;;;7.93;2.30;;;;;;;4.78;64.36;101088.91;4989291;28;20232;-74
2021/04/22 06:27:12;;;;;;;8.13;2.27;;;;;;;4.86;63.72;101088.09;4990700;28;20203;-74
2021/04/22 06:29:39;;;;;;;4.97;2.60;;;;;;;4.88;63.43;101093.25;4993383;28;20204;-75
2021/04/22 06:32:06;;;;;;;4.23;1.90;;;;;;;5.00;63.79;101092.47;4998441;28;20288;-73
2021/04/22 06:34:32;;;;;;;10.63;2.03;;;;;;;4.96;62.60;101099.34;4996024;28;20227;-73
2021/04/22 06:36:59;;;;;;;8.00;2.40;;;;;;;5.00;63.35;101100.22;4994925;28;20219;-73
2021/04/22 06:39:26;;;;;;;10.33;2.30;;;;;;;5.12;64.05;101102.84;4995888;28;20254;-73
2021/04/22 06:41:52;;;;;;;6.63;2.13;;;;;;;5.14;64.39;101108.88;4993124;28;20197;-73
2021/04/22 06:44:18;;;;;;;5.30;2.20;;;;;;;5.12;63.00;101105.44;4991033;28;20243;-73
2021/04/22 06:46:45;;;;;;;10.23;4.03;;;;;;;5.12;63.44;101105.44;4989925;28;20202;-73
2021/04/22 06:49:11;;;;;;;9.20;2.33;;;;;;;5.13;64.41;101108.00;4994858;28;20228;-73
2021/04/22 06:51:37;;;;;;;6.47;2.23;;;;;;;5.14;63.74;101108.88;4993652;28;20216;-73
2021/04/22 06:54:04;;;;;;;7.33;2.67;;;;;;;5.14;64.79;101121.81;4991274;28;20228;-73
2021/04/22 06:56:30;;;;;;;7.47;2.50;;;;;;;5.03;62.48;101120.88;4993250;28;20208;-73
2021/04/22 06:58:59;;;;;;;8.13;2.33;;;;;;;5.16;62.29;101122.69;4991081;28;20540;-73
2021/04/22 07:01:25;;;;;;;8.83;2.67;;;;;;;5.37;66.35;101116.72;4990951;28;20682;-73
2021/04/22 07:03:54;;;;;;;7.83;2.80;;;;;;;5.25;62.94;101117.53;4989074;28;20299;-73
2021/04/22 07:06:20;;;;;;;7.90;2.00;;;;;;;5.21;63.14;101117.53;4995385;28;20192;-73
2021/04/22 07:08:46;;;;;;;10.03;2.77;;;;;;;5.34;64.13;101116.72;4972148;28;20204;-73
2021/04/22 07:11:12;;;;;;;5.80;2.70;;;;;;;5.50;63.10;101118.50;4988846;28;20291;-73
2021/04/22 07:13:37;;;;;;;8.17;2.80;;;;;;;5.61;63.51;101125.41;4995019;28;20822;-73
2021/04/22 07:16:04;;;;;;;11.60;3.53;;;;;;;5.49;62.41;101127.09;4987944;28;20245;-73
2021/04/22 07:18:30;;;;;;;7.53;2.10;;;;;;;5.47;62.45;101130.53;4993197;28;20248;-73
2021/04/22 07:20:57;;;;;;;7.37;2.53;;;;;;;5.58;61.89;101136.63;4990247;28;20606;-74
2021/04/22 07:23:23;;;;;;;7.83;2.40;;;;;;;5.55;60.53;101134.00;4987502;28;20225;-73
2021/04/22 07:25:50;;;;;;;8.83;2.43;;;;;;;5.69;58.90;101128.88;4991484;28;20613;-73
2021/04/22 07:28:17;;;;;;;5.50;1.73;;;;;;;5.93;60.06;101129.75;4994400;28;20197;-73
2021/04/22 07:30:43;;;;;;;9.23;2.50;;;;;;;5.90;60.32;101134.97;4993699;28;20197;-74
2021/04/22 07:33:10;;;;;;;7.60;2.10;;;;;;;5.93;58.79;101132.34;4993939;28;20209;-73
2021/04/22 07:35:37;;;;;;;4.63;1.93;;;;;;;6.24;57.71;101133.25;4990214;28;20186;-73
2021/04/22 07:38:05;;;;;;;5.70;2.33;;;;;;;6.11;57.58;101142.75;4988944;28;20299;-73
2021/04/22 07:40:31;;;;;;;6.33;2.13;;;;;;;6.05;56.50;101145.34;4990958;28;20197;-73
2021/04/22 07:42:57;;;;;;;5.70;1.90;;;;;;;6.17;57.95;101129.81;4993316;28;20204;-73
2021/04/22 07:45:26;;;;;;;4.93;1.80;;;;;;;6.22;57.29;101130.66;4994365;28;20205;-73
2021/04/22 07:47:52;;;;;;;7.80;2.20;;;;;;;6.43;57.89;101132.38;4987077;28;20199;-74
2021/04/22 07:50:20;;;;;;;12.50;2.50;;;;;;;6.46;56.38;101138.47;4987545;28;20205;-73
2021/04/22 07:52:46;;;;;;;7.50;2.00;;;;;;;6.45;56.06;101140.16;4988211;28;20209;-73
2021/04/22 07:55:17;;;;;;;7.50;2.37;;;;;;;6.76;56.58;101140.13;4986645;28;20728;-74
2021/04/22 07:57:44;;;;;;;7.10;2.20;;;;;;;7.02;56.33;101147.84;4986496;28;20296;-74
2021/04/22 08:00:13;;;;;;;3.73;1.90;;;;;;;6.94;55.40;101147.00;4986501;28;20212;-74
2021/04/22 08:02:39;;;;;;;11.07;2.53;;;;;;;6.78;56.47;101144.44;4988685;28;20258;-74
2021/04/22 08:05:06;;;;;;;4.70;2.30;;;;;;;6.81;56.76;101146.16;4986882;28;20305;-73
2021/04/22 08:07:32;;;;;;;8.00;2.07;;;;;;;6.73;56.18;101145.31;4991615;28;20309;-73
2021/04/22 08:09:59;;;;;;;4.83;2.17;;;;;;;7.00;54.62;101149.53;4987155;28;20541;-73
2021/04/22 08:12:27;;;;;;;11.87;3.53;;;;;;;7.06;55.55;101146.09;4990479;28;20667;-74
2021/04/22 08:14:57;;;;;;;13.60;5.27;;;;;;;6.98;55.26;101148.69;4990165;28;20586;-73
2021/04/22 08:17:23;;;;;;;9.27;2.43;;;;;;;6.84;57.01;101148.72;4988564;28;20225;-74
2021/04/22 08:19:49;;;;;;;12.53;7.83;;;;;;;6.78;56.14;101157.38;4988251;28;20987;-74
2021/04/22 08:22:15;;;;;;;8.23;2.63;;;;;;;6.83;56.10;101150.47;4981476;28;20209;-74
2021/04/22 08:24:41;;;;;;;5.73;2.43;;;;;;;6.90;55.58;101153.91;4979287;28;20695;-74
2021/04/22 08:27:07;;;;;;;3.97;1.80;;;;;;;7.18;55.88;101154.69;4982980;28;20190;-74
2021/04/22 08:29:34;;;;;;;5.53;1.77;;;;;;;7.18;54.04;101161.63;4982001;28;20260;-74
2021/04/22 08:32:00;;;;;;;9.87;2.60;;;;;;;7.32;55.93;101151.19;4979265;28;20201;-74
2021/04/22 08:34:27;;;;;;;5.40;2.40;;;;;;;7.42;54.95;101160.63;4983620;28;20299;-74
2021/04/22 08:36:53;;;;;;;8.40;3.20;;;;;;;7.33;53.29;101151.16;4982921;28;20224;-74
2021/04/22 08:39:19;;;;;;;8.00;2.20;;;;;;;7.47;53.19;101156.28;4983256;28;20206;-74
2021/04/22 08:41:46;;;;;;;8.20;2.70;;;;;;;7.39;53.08;101165.84;4983570;28;20201;-74
2021/04/22 08:44:12;;;;;;;6.47;2.70;;;;;;;7.26;53.48;101165.03;4982101;28;20246;-74
2021/04/22 08:46:40;;;;;;;6.67;2.77;;;;;;;7.19;53.27;101169.41;4980029;28;20287;-74
2021/04/22 08:49:05;;;;;;;6.03;2.40;;;;;;;7.16;54.31;101160.75;4982518;28;20687;-74
2021/04/22 08:51:32;;;;;;;7.83;3.23;;;;;;;7.16;54.81;101164.22;4984150;28;20285;-74
2021/04/22 08:54:00;;;;;;;5.43;3.20;;;;;;;7.26;56.19;101166.75;4983112;28;20225;-74
2021/04/22 08:56:26;;;;;;;6.17;2.63;;;;;;;7.24;55.77;101176.28;4980577;28;20215;-74
2021/04/22 08:58:52;;;;;;;7.90;2.60;;;;;;;7.30;56.39;101164.16;4984244;28;20197;-74
2021/04/22 09:01:21;;;;;;;5.73;2.53;;;;;;;7.35;55.65;101170.19;4982651;28;20290;-74
2021/04/22 09:03:49;;;;;;;6.40;2.93;;;;;;;7.29;54.98;101178.00;4979859;28;20272;-74
2021/04/22 09:06:16;;;;;;;9.07;3.23;;;;;;;7.20;54.77;101183.22;4983248;28;20203;-74
2021/04/22 09:08:44;;;;;;;14.53;4.23;;;;;;;7.70;55.36;101176.94;4983427;28;20228;-74
2021/04/22 09:11:12;;;;;;;10.60;3.40;;;;;;;7.74;54.37;101180.41;4982871;28;20210;-74
2021/04/22 09:13:39;;;;;;;7.77;2.70;;;;;;;7.57;55.96;101178.72;4982130;28;20708;-74
2021/04/22 09:16:08;;;;;;;4.67;2.50;;;;;;;7.54;53.53;101191.72;5004230;28;20252;-74
2021/04/22 09:18:39;;;;;;;8.23;3.30;;;;;;;7.61;52.76;101197.75;4976084;28;20226;-74
2021/04/22 09:21:06;;;;;;;5.60;2.80;;;;;;;7.52;52.74;101201.25;4982994;28;20309;-74
2021/04/22 09:23:32;;;;;;;9.50;2.90;;;;;;;7.41;53.94;101197.00;4987437;28;20227;-74
2021/04/22 09:26:01;;;;;;;6.10;2.20;;;;;;;7.33;53.82;101194.41;4988582;28;20290;-73
2021/04/22 09:28:35;;;;;;;9.30;2.40;;;;;;;7.33;55.59;101197.84;4985155;28;20249;-73
2021/04/22 09:31:01;;;;;;;5.53;1.90;;;;;;;7.25;54.03;101198.78;4988001;28;20212;-74
2021/04/22 09:33:30;;;;;;;4.63;2.33;;;;;;;7.34;54.88;101198.72;4995324;28;20230;-73
2021/04/22 09:36:07;;;;;;;7.83;2.77;;;;;;;7.62;53.69;101201.22;4987585;28;20198;-74
2021/04/22 09:38:33;;;;;;;5.60;2.33;;;;;;;7.80;53.25;101192.47;4985544;28;20268;-73
2021/04/22 09:41:07;;;;;;;8.10;2.20;;;;;;;7.78;54.14;101185.53;4985517;28;20204;-74
2021/04/22 09:43:35;;;;;;;7.13;2.40;;;;;;;7.91;53.70;101185.47;4987341;28;20227;-73
2021/04/22 09:46:01;;;;;;;7.80;2.47;;;;;;;8.02;54.17;101188.00;4987598;28;20505;-74
2021/04/22 09:48:28;;;;;;;8.00;2.17;;;;;;;8.06;53.75;101193.16;4985222;28;20203;-74
2021/04/22 09:50:55;;;;;;;6.70;2.30;;;;;;;7.90;52.85;101191.56;4988837;28;20247;-73
2021/04/22 09:53:25;;;;;;;4.77;2.00;;;;;;;7.85;52.15;101198.50;4989303;28;20804;-73
2021/04/22 09:55:52;;;;;;;4.80;2.33;;;;;;;8.04;51.26;101199.22;4990953;28;20192;-73
2021/04/22 09:58:26;;;;;;;5.63;2.40;;;;;;;8.65;52.75;101185.81;4989808;28;20566;-73
2021/04/22 10:00:53;;;;;;;7.03;2.17;;;;;;;8.60;49.93;101192.78;4984720;28;20761;-73
2021/04/22 10:03:19;;;;;;;6.20;1.80;;;;;;;8.78;51.41;101183.97;4984979;28;20877;-73
2021/04/22 10:05:56;;;;;;;7.40;2.00;;;;;;;8.80;51.58;101195.19;4991336;28;20211;-73
2021/04/22 10:08:22;;;;;;;7.57;3.00;;;;;;;8.77;50.09;101200.41;4989089;28;20756;-73
2021/04/22 10:10:57;;;;;;;8.90;2.03;;;;;;;8.62;51.36;101195.34;4986677;28;20211;-73
2021/04/22 10:13:23;;;;;;;6.73;2.03;;;;;;;8.55;51.00;101197.16;4989543;28;20224;-73
2021/04/22 10:15:51;;;;;;;4.20;1.63;;;;;;;8.37;51.40;101192.94;4988140;28;20197;-73
2021/04/22 10:18:17;;;;;;;5.83;1.70;;;;;;;8.15;49.77;101197.44;4989461;28;20270;-73
2021/04/22 10:20:43;;;;;;;5.73;1.90;;;;;;;8.46;52.42;101189.44;4989922;28;20197;-73
2021/04/22 10:23:11;;;;;;;4.30;1.87;;;;;;;8.79;52.53;101185.66;4989516;28;20749;-73
2021/04/22 10:25:40;;;;;;;5.20;1.90;;;;;;;8.55;50.61;101202.38;4989405;28;20213;-73
2021/04/22 10:28:08;;;;;;;7.20;2.20;;;;;;;8.44;51.52;101193.78;4989065;28;20267;-73
2021/04/22 10:30:36;;;;;;;2.33;1.67;;;;;;;8.41;51.09;101188.56;4988221;28;20757;-73
2021/04/22 10:33:03;;;;;;;5.47;1.97;;;;;;;8.86;52.10;101184.72;4987369;28;20239;-73
2021/04/22 10:35:31;;;;;;;6.57;1.90;;;;;;;9.14;50.88;101179.22;4986755;28;20420;-73
2021/04/22 10:37:58;;;;;;;5.97;1.97;;;;;;;9.04;48.34;101186.28;4992111;28;20290;-73
2021/04/22 10:40:25;;;;;;;8.17;2.13;;;;;;;9.10;50.13;101182.75;4988906;28;20272;-73
2021/04/22 10:42:55;;;;;;;10.93;1.73;;;;;;;9.20;51.72;101178.28;4988035;28;20247;-73
2021/04/22 10:45:24;;;;;;;6.10;2.13;;;;;;;9.01;51.31;101188.06;4989283;28;20194;-73
2021/04/22 10:47:50;;;;;;;7.37;2.10;;;;;;;8.95;50.98;101201.13;4987183;28;20206;-74
2021/04/22 10:50:19;;;;;;;5.83;1.80;;;;;;;9.28;49.13;101187.72;4985528;28;20238;-74
2021/04/22 10:52:48;;;;;;;7.30;1.93;;;;;;;9.38;49.60;101187.66;4982857;28;20205;-74
2021/04/22 10:55:16;;;;;;;5.40;2.00;;;;;;;9.13;47.63;101197.44;4984904;28;20213;-74
2021/04/22 10:57:42;;;;;;;5.23;2.10;;;;;;;9.41;50.06;101187.59;4985899;28;20237;-74
2021/04/22 11:00:13;;;;;;;6.83;1.67;;;;;;;9.42;50.46;101197.97;4987185;28;20201;-74
2021/04/22 11:02:44;;;;;;;5.77;1.63;;;;;;;9.23;48.03;101202.56;4987517;28;20667;-74
2021/04/22 11:05:20;;;;;;;5.67;1.67;;;;;;;9.32;46.87;101203.31;4985966;28;20245;-74
2021/04/22 11:07:54;;;;;;;5.20;1.90;;;;;;;9.47;50.01;101198.78;4986537;28;20623;-74
2021/04/22 11:10:20;;;;;;;4.20;2.00;;;;;;;9.68;48.82;101198.56;4985135;28;21063;-74
2021/04/22 11:12:47;;;;;;;6.40;1.87;;;;;;;9.39;46.94;101191.94;4985275;28;20738;-74
2021/04/22 11:15:19;;;;;;;4.43;1.70;;;;;;;9.34;49.89;101204.16;4984915;28;20222;-73
2021/04/22 11:17:45;;;;;;;5.20;2.00;;;;;;;9.16;49.56;101194.81;4986120;28;20702;-74
2021/04/22 11:20:13;;;;;;;4.67;1.80;;;;;;;9.43;50.54;101193.66;4988530;28;20758;-74
2021/04/22 11:22:40;;;;;;;4.20;1.70;;;;;;;9.50;49.44;101189.22;4997302;28;20214;-74
2021/04/22 11:25:09;;;;;;;5.47;1.63;;;;;;;9.62;48.68;101196.88;4989348;28;20708;-74
2021/04/22 11:27:47;;;;;;;5.43;1.73;;;;;;;10.03;48.43;101195.44;4985010;28;20194;-74
2021/04/22 11:30:26;;;;;;;4.97;1.80;;;;;;;10.28;45.88;101193.31;4985164;28;20197;-74